createdAt,value
2019-05-20T00:00:21.848Z,12.2
2019-05-20T00:01:29.073Z,12.2
2019-05-20T00:02:36.300Z,12.2
2019-05-20T00:03:43.504Z,12.2
2019-05-20T00:04:50.169Z,12.2
2019-05-20T00:05:57.409Z,12.1
2019-05-20T00:07:04.627Z,12.1
2019-05-20T00:08:11.836Z,12.1
2019-05-20T00:09:19.048Z,12.1
2019-05-20T00:10:26.257Z,12.1
2019-05-20T00:11:33.461Z,12.1
2019-05-20T00:12:40.683Z,12.1
2019-05-20T00:13:47.908Z,12.1
2019-05-20T00:14:54.841Z,12.1
2019-05-20T00:16:01.775Z,12.1
2019-05-20T00:17:08.986Z,12.1
2019-05-20T00:18:16.186Z,12
2019-05-20T00:19:23.609Z,12
2019-05-20T00:20:30.860Z,12
2019-05-20T00:21:38.072Z,12
2019-05-20T00:22:45.477Z,11.9
2019-05-20T00:23:52.678Z,11.9
2019-05-20T00:24:59.889Z,11.8
2019-05-20T00:26:06.823Z,11.8
2019-05-20T00:27:14.053Z,11.8
2019-05-20T00:28:21.273Z,11.8
2019-05-20T00:29:28.218Z,11.8
2019-05-20T00:30:35.414Z,11.8
2019-05-20T00:31:42.617Z,11.8
2019-05-20T00:32:49.823Z,11.8
2019-05-20T00:33:57.034Z,11.8
2019-05-20T00:35:04.249Z,11.8
2019-05-20T00:36:11.459Z,11.8
2019-05-20T00:37:18.664Z,11.7
2019-05-20T00:38:25.873Z,11.7
2019-05-20T00:39:32.805Z,11.7
2019-05-20T00:40:39.464Z,11.7
2019-05-20T00:41:46.670Z,11.7
2019-05-20T00:42:53.876Z,11.7
2019-05-20T00:44:00.804Z,11.7
2019-05-20T00:45:08.037Z,11.7
2019-05-20T00:46:15.244Z,11.8
2019-05-20T00:47:22.206Z,11.8
2019-05-20T00:48:29.408Z,11.7
2019-05-20T00:49:36.614Z,11.6
2019-05-20T00:50:43.823Z,11.6
2019-05-20T00:51:51.038Z,11.5
2019-05-20T00:52:58.246Z,11.6
2019-05-20T00:54:05.486Z,11.5
2019-05-20T00:55:12.965Z,11.6
2019-05-20T00:56:20.167Z,11.6
2019-05-20T00:57:27.407Z,11.6
2019-05-20T00:58:34.610Z,11.6
2019-05-20T00:59:41.550Z,11.6
2019-05-20T01:00:48.756Z,11.6
2019-05-20T01:01:55.969Z,11.6
2019-05-20T01:03:03.180Z,11.6
2019-05-20T01:04:10.111Z,11.6
2019-05-20T01:05:16.781Z,11.5
2019-05-20T01:06:23.704Z,11.5
2019-05-20T01:07:30.644Z,11.5
2019-05-20T01:08:37.846Z,11.5
2019-05-20T01:09:45.054Z,11.5
2019-05-20T01:10:52.277Z,11.5
2019-05-20T01:11:59.496Z,11.5
2019-05-20T01:13:06.701Z,11.5
2019-05-20T01:14:13.903Z,11.5
2019-05-20T01:15:21.109Z,11.5
2019-05-20T01:16:28.316Z,11.5
2019-05-20T01:17:35.523Z,11.5
2019-05-20T01:18:42.737Z,11.5
2019-05-20T01:19:49.995Z,11.4
2019-05-20T01:20:57.185Z,11.5
2019-05-20T01:22:04.400Z,11.4
2019-05-20T01:23:11.615Z,11.4
2019-05-20T01:24:18.832Z,11.5
2019-05-20T01:25:25.771Z,11.4
2019-05-20T01:26:32.982Z,11.4
2019-05-20T01:27:40.187Z,11.4
2019-05-20T01:28:47.393Z,11.4
2019-05-20T01:29:54.062Z,11.5
2019-05-20T01:31:00.990Z,11.5
2019-05-20T01:32:07.921Z,11.5
2019-05-20T01:33:15.243Z,11.6
2019-05-20T01:34:22.186Z,11.6
2019-05-20T01:35:29.387Z,11.6
2019-05-20T01:36:36.589Z,11.6
2019-05-20T01:37:43.521Z,11.6
2019-05-20T01:38:50.722Z,11.6
2019-05-20T01:39:57.921Z,11.7
2019-05-20T01:41:05.121Z,11.7
2019-05-20T01:42:12.322Z,11.7
2019-05-20T01:43:19.525Z,11.7
2019-05-20T01:44:26.725Z,11.7
2019-05-20T01:45:33.951Z,11.7
2019-05-20T01:46:40.890Z,11.7
2019-05-20T01:47:48.087Z,11.7
2019-05-20T01:48:55.290Z,11.7
2019-05-20T01:50:02.212Z,11.8
2019-05-20T01:51:09.418Z,11.8
2019-05-20T01:52:16.626Z,11.8
2019-05-20T01:53:23.558Z,11.9
2019-05-20T01:54:30.467Z,11.9
2019-05-20T01:55:37.708Z,11.9
2019-05-20T01:56:45.519Z,11.9
2019-05-20T01:57:52.459Z,11.9
2019-05-20T01:58:59.663Z,11.9
2019-05-20T02:00:06.872Z,11.9
2019-05-20T02:01:14.081Z,11.9
2019-05-20T02:02:21.308Z,11.9
2019-05-20T02:03:31.456Z,12
2019-05-20T02:04:39.355Z,11.9
2019-05-20T02:05:46.561Z,12
2019-05-20T02:06:53.509Z,12
2019-05-20T02:08:00.783Z,11.9
2019-05-20T02:09:07.987Z,12
2019-05-20T02:10:15.197Z,11.9
2019-05-20T02:11:22.127Z,11.9
2019-05-20T02:12:29.336Z,11.9
2019-05-20T02:13:36.543Z,11.9
2019-05-20T02:14:43.750Z,11.9
2019-05-20T02:15:50.962Z,11.9
2019-05-20T02:16:57.896Z,11.9
2019-05-20T02:18:08.861Z,11.9
2019-05-20T02:19:15.544Z,11.9
2019-05-20T02:20:22.748Z,11.9
2019-05-20T02:21:29.976Z,11.9
2019-05-20T02:22:36.905Z,11.9
2019-05-20T02:23:43.835Z,11.9
2019-05-20T02:24:51.127Z,11.9
2019-05-20T02:25:58.072Z,11.9
2019-05-20T02:27:05.274Z,11.9
2019-05-20T02:28:12.499Z,12
2019-05-20T02:29:34.357Z,12
2019-05-20T02:30:41.286Z,12
2019-05-20T02:31:48.489Z,12
2019-05-20T02:32:55.697Z,12.1
2019-05-20T02:34:02.903Z,12.1
2019-05-20T02:35:10.123Z,12.1
2019-05-20T02:36:17.354Z,12
2019-05-20T02:37:24.279Z,12
2019-05-20T02:38:31.490Z,12
2019-05-20T02:39:38.691Z,12
2019-05-20T02:40:45.896Z,12
2019-05-20T02:41:52.831Z,12
2019-05-20T02:43:00.038Z,12
2019-05-20T02:44:07.243Z,12
2019-05-20T02:45:14.448Z,12
2019-05-20T02:46:21.715Z,12
2019-05-20T02:47:28.914Z,12
2019-05-20T02:48:36.139Z,12
2019-05-20T02:49:43.341Z,12
2019-05-20T02:50:50.542Z,12
2019-05-20T02:51:57.753Z,12
2019-05-20T02:53:04.961Z,12
2019-05-20T02:54:11.888Z,12
2019-05-20T02:55:19.144Z,12
2019-05-20T02:56:26.354Z,12
2019-05-20T02:57:33.574Z,12
2019-05-20T02:58:40.779Z,12.1
2019-05-20T02:59:47.717Z,12.1
2019-05-20T03:00:54.913Z,12.1
2019-05-20T03:02:02.123Z,12.1
2019-05-20T03:03:09.152Z,12.1
2019-05-20T03:04:16.357Z,12.1
2019-05-20T03:05:23.287Z,12.1
2019-05-20T03:06:30.210Z,12.1
2019-05-20T03:07:37.422Z,12.1
2019-05-20T03:08:44.638Z,12.1
2019-05-20T03:09:51.563Z,12.1
2019-05-20T03:10:58.768Z,12.1
2019-05-20T03:12:05.422Z,12.1
2019-05-20T03:13:12.627Z,12.1
2019-05-20T03:14:19.600Z,12.1
2019-05-20T03:15:26.803Z,12.1
2019-05-20T03:16:34.042Z,12.1
2019-05-20T03:17:41.245Z,12.1
2019-05-20T03:18:48.449Z,12.1
2019-05-20T03:19:55.377Z,12.1
2019-05-20T03:21:02.585Z,12.1
2019-05-20T03:22:09.788Z,12.1
2019-05-20T03:23:16.988Z,12.1
2019-05-20T03:24:24.192Z,12.1
2019-05-20T03:25:31.394Z,12.1
2019-05-20T03:26:38.603Z,12.1
2019-05-20T03:27:45.807Z,12.1
2019-05-20T03:28:52.763Z,12.1
2019-05-20T03:29:59.968Z,12.1
2019-05-20T03:31:06.898Z,12.2
2019-05-20T03:32:14.138Z,12.2
2019-05-20T03:33:21.089Z,12.2
2019-05-20T03:34:57.411Z,12.2
2019-05-20T03:36:08.504Z,12.2
2019-05-20T03:37:15.771Z,12.2
2019-05-20T03:38:22.701Z,12.2
2019-05-20T03:39:29.910Z,12.3
2019-05-20T03:40:36.835Z,12.3
2019-05-20T22:00:06.336Z,13.6
2019-05-20T22:01:13.554Z,13.6
2019-05-20T22:02:20.754Z,13.6
2019-05-20T22:03:27.964Z,13.7
2019-05-20T22:04:35.166Z,13.6
2019-05-20T22:05:42.094Z,13.6
2019-05-20T22:06:49.022Z,13.7
2019-05-20T22:07:56.236Z,13.6
2019-05-20T22:09:03.431Z,13.7
2019-05-20T22:10:10.637Z,13.6
2019-05-20T22:11:17.849Z,13.7
2019-05-20T22:12:25.068Z,13.7
2019-05-20T22:13:32.282Z,13.7
2019-05-20T22:14:39.224Z,13.7
2019-05-20T22:15:46.481Z,13.7
2019-05-20T22:16:53.678Z,13.7
2019-05-20T22:18:00.887Z,13.6
2019-05-20T22:19:08.156Z,13.6
2019-05-20T22:20:15.357Z,13.7
2019-05-20T22:21:22.565Z,13.7
2019-05-20T22:22:29.506Z,13.6
2019-05-20T22:23:36.715Z,13.6
2019-05-20T22:24:43.930Z,13.7
2019-05-20T22:25:51.168Z,13.7
2019-05-20T22:26:58.373Z,13.7
2019-05-20T22:28:05.587Z,13.7
2019-05-20T22:29:12.788Z,13.6
2019-05-20T22:30:19.711Z,13.6
2019-05-20T22:31:26.977Z,13.7
2019-05-20T22:32:34.171Z,13.7
2019-05-20T22:33:43.249Z,13.7
2019-05-20T22:34:54.294Z,13.7
2019-05-20T22:36:00.943Z,13.6
2019-05-20T22:37:08.148Z,13.6
2019-05-20T22:38:15.355Z,13.6
2019-05-20T22:39:22.559Z,13.6
2019-05-20T22:40:29.468Z,13.6
2019-05-20T22:41:36.728Z,13.6
2019-05-20T22:42:43.938Z,13.6
2019-05-20T22:43:51.352Z,13.6
2019-05-20T22:44:58.357Z,13.6
2019-05-20T22:46:05.568Z,13.6
2019-05-20T22:47:12.773Z,13.6
2019-05-20T22:48:19.973Z,13.6
2019-05-20T22:49:27.187Z,13.6
2019-05-20T22:50:34.116Z,13.6
2019-05-20T22:51:41.052Z,13.6
2019-05-20T22:52:47.988Z,13.6
2019-05-20T22:53:55.199Z,13.6
2019-05-20T22:55:02.439Z,13.6
2019-05-20T22:56:09.644Z,13.6
2019-05-20T22:57:16.848Z,13.6
2019-05-20T22:58:24.106Z,13.6
2019-05-20T22:59:31.297Z,13.6
2019-05-20T23:00:38.500Z,13.6
2019-05-20T23:01:45.708Z,13.6
2019-05-20T23:02:52.954Z,13.6
2019-05-20T23:04:00.172Z,13.6
2019-05-20T23:05:07.400Z,13.5
2019-05-20T23:06:14.603Z,13.5
2019-05-20T23:07:21.811Z,13.5
2019-05-20T23:08:29.018Z,13.5
2019-05-20T23:09:35.961Z,13.6
2019-05-20T23:10:43.171Z,13.6
2019-05-20T23:11:50.380Z,13.5
2019-05-20T23:12:57.582Z,13.6
2019-05-20T23:14:05.030Z,13.5
2019-05-20T23:15:12.236Z,13.6
2019-05-20T23:16:19.165Z,13.5
2019-05-20T23:17:26.368Z,13.5
2019-05-20T23:18:33.031Z,13.5
2019-05-20T23:19:39.972Z,13.5
2019-05-20T23:20:47.172Z,13.5
2019-05-20T23:21:54.386Z,13.5
2019-05-20T23:23:01.595Z,13.5
2019-05-20T23:24:08.540Z,13.5
2019-05-20T23:25:15.751Z,13.5
2019-05-20T23:26:22.955Z,13.5
2019-05-20T23:27:30.160Z,13.4
2019-05-20T23:28:37.370Z,13.4
2019-05-20T23:29:44.643Z,13.4
2019-05-20T23:30:51.848Z,13.5
2019-05-20T23:31:59.110Z,13.4
2019-05-20T23:33:06.068Z,13.4
2019-05-20T23:34:13.932Z,13.4
2019-05-20T23:35:21.149Z,13.4
2019-05-20T23:36:28.349Z,13.5
2019-05-20T23:37:35.558Z,13.5
2019-05-20T23:38:42.765Z,13.5
2019-05-20T23:39:49.975Z,13.5
2019-05-20T23:40:56.907Z,13.4
2019-05-20T23:42:03.859Z,13.4
2019-05-20T23:43:11.060Z,13.4
2019-05-20T23:44:18.270Z,13.4
2019-05-20T23:45:25.495Z,13.4
2019-05-20T23:46:32.450Z,13.4
2019-05-20T23:47:39.365Z,13.4
2019-05-20T23:48:46.319Z,13.4
2019-05-20T23:49:53.529Z,13.4
2019-05-20T23:51:00.454Z,13.4
2019-05-20T23:52:07.391Z,13.4
2019-05-20T23:53:14.594Z,13.4
2019-05-20T23:54:21.828Z,13.4
2019-05-20T23:55:29.044Z,13.4
2019-05-20T23:56:36.250Z,13.4
2019-05-20T23:57:43.187Z,13.4
2019-05-20T23:58:50.417Z,13.4
2019-05-20T23:59:57.627Z,13.4
